createdAt,value
2022-09-15T00:00:52.860Z,10.70
2022-09-15T00:03:21.333Z,10.70
2022-09-15T00:05:50.774Z,10.70
2022-09-15T00:08:18.910Z,10.70
2022-09-15T00:10:50.461Z,10.60
2022-09-15T00:13:18.629Z,10.60
2022-09-15T00:15:48.615Z,10.60
2022-09-15T00:18:16.591Z,10.50
2022-09-15T00:20:46.018Z,10.50
2022-09-15T00:23:15.206Z,10.50
2022-09-15T00:25:45.847Z,10.60
2022-09-15T00:28:14.413Z,10.50
2022-09-15T00:30:43.423Z,10.50
2022-09-15T00:33:13.106Z,10.50
2022-09-15T00:35:41.570Z,10.50
2022-09-15T00:38:10.307Z,10.50
2022-09-15T00:40:44.494Z,10.50
2022-09-15T00:43:15.613Z,10.40
2022-09-15T00:45:44.620Z,10.40
2022-09-15T00:48:16.261Z,10.40
2022-09-15T00:50:46.490Z,10.40
2022-09-15T00:53:17.330Z,10.40
2022-09-15T00:55:47.500Z,10.40
2022-09-15T00:58:19.469Z,10.30
2022-09-15T01:00:50.611Z,10.30
2022-09-15T01:03:20.059Z,10.30
2022-09-15T01:05:49.866Z,10.20
2022-09-15T01:08:20.527Z,10.20
2022-09-15T01:10:50.454Z,10.20
2022-09-15T01:13:18.849Z,10.20
2022-09-15T01:15:50.952Z,10.30
2022-09-15T01:18:23.398Z,10.20
2022-09-15T01:21:05.567Z,10.10
2022-09-15T01:23:54.090Z,10.10
2022-09-15T01:26:35.329Z,10.00
2022-09-15T01:29:21.855Z,10.10
2022-09-15T01:32:08.787Z,10.10
2022-09-15T01:34:40.991Z,10.00
2022-09-15T01:37:11.671Z,10.00
2022-09-15T01:39:42.617Z,9.90
2022-09-15T01:42:11.498Z,10.00
2022-09-15T01:44:41.524Z,9.90
2022-09-15T01:47:11.937Z,9.90
2022-09-15T01:49:43.530Z,9.80
2022-09-15T01:52:11.579Z,9.90
2022-09-15T01:54:41.535Z,9.90
2022-09-15T01:57:09.581Z,9.90
2022-09-15T01:59:37.582Z,9.90
2022-09-15T02:02:06.741Z,10.00
2022-09-15T02:04:39.122Z,10.00
2022-09-15T02:07:11.641Z,10.00
2022-09-15T02:09:46.711Z,9.90
2022-09-15T02:12:20.334Z,9.90
2022-09-15T02:14:50.333Z,9.90
2022-09-15T02:17:20.202Z,9.90
2022-09-15T02:19:51.182Z,9.90
2022-09-15T02:22:23.572Z,9.90
2022-09-15T02:24:54.178Z,9.90
2022-09-15T02:27:24.491Z,9.90
2022-09-15T02:29:53.682Z,9.90
2022-09-15T02:32:23.625Z,10.00
2022-09-15T02:34:54.654Z,10.10
2022-09-15T02:37:24.389Z,10.10
2022-09-15T02:39:53.174Z,10.00
2022-09-15T02:42:27.375Z,10.00
2022-09-15T02:44:55.945Z,10.00
2022-09-15T02:47:24.063Z,10.00
2022-09-15T02:49:53.993Z,10.00
2022-09-15T02:52:22.113Z,10.00
2022-09-15T02:54:50.606Z,10.00
2022-09-15T02:57:18.546Z,10.00
2022-09-15T03:00:03.982Z,9.90
2022-09-15T03:02:32.534Z,10.00
2022-09-15T03:05:01.813Z,9.90
2022-09-15T03:07:30.226Z,9.90
2022-09-15T03:10:00.818Z,9.90
2022-09-15T03:12:28.702Z,10.00
2022-09-15T03:14:56.661Z,10.00
2022-09-15T03:17:25.337Z,10.10
2022-09-15T03:19:53.525Z,10.00
2022-09-15T03:22:22.826Z,10.00
2022-09-15T03:24:51.494Z,10.00
2022-09-15T03:27:21.488Z,10.00
2022-09-15T03:29:49.546Z,10.00
2022-09-15T03:32:17.506Z,10.00
2022-09-15T03:34:45.634Z,10.00
2022-09-15T03:37:13.561Z,10.00
2022-09-15T03:39:43.119Z,10.00
2022-09-15T03:42:12.997Z,10.00
2022-09-15T03:44:40.925Z,10.00
2022-09-15T03:47:09.088Z,10.00
2022-09-15T03:49:37.068Z,10.00
2022-09-15T03:52:05.193Z,9.90
2022-09-15T03:54:33.280Z,9.90
2022-09-15T03:57:03.495Z,10.00
2022-09-15T03:59:31.713Z,10.00
2022-09-15T04:01:59.683Z,9.90
2022-09-15T04:04:29.532Z,9.90
2022-09-15T04:06:57.427Z,9.90
2022-09-15T04:09:25.941Z,9.90
2022-09-15T04:11:53.868Z,9.90
2022-09-15T04:14:23.357Z,9.90
2022-09-15T04:16:51.270Z,9.90
2022-09-15T04:19:19.454Z,9.90
2022-09-15T04:21:48.267Z,10.00
2022-09-15T04:24:17.239Z,10.00
2022-09-15T04:26:45.324Z,10.00
2022-09-15T04:29:14.216Z,10.00
2022-09-15T04:31:43.922Z,10.00
2022-09-15T04:34:12.321Z,10.00
2022-09-15T04:36:40.302Z,10.00
2022-09-15T04:39:08.480Z,10.00
2022-09-15T04:41:36.394Z,10.00
2022-09-15T04:44:04.691Z,9.90
2022-09-15T04:46:32.768Z,10.00
2022-09-15T04:49:02.243Z,10.00
2022-09-15T04:51:30.244Z,10.10
2022-09-15T04:53:58.819Z,10.10
2022-09-15T04:56:27.295Z,10.10
2022-09-15T04:59:00.923Z,10.10
2022-09-15T05:01:32.585Z,10.10
2022-09-15T05:04:02.071Z,10.20
2022-09-15T05:06:30.049Z,10.20
2022-09-15T05:08:58.626Z,10.20
2022-09-15T05:11:27.106Z,10.20
2022-09-15T05:13:55.546Z,10.20
2022-09-15T05:16:24.410Z,10.20
2022-09-15T05:18:53.216Z,10.20
2022-09-15T05:21:23.034Z,10.10
2022-09-15T05:23:52.008Z,10.10
2022-09-15T05:26:24.287Z,10.20
2022-09-15T05:28:52.662Z,10.20
2022-09-15T05:31:21.548Z,10.20
2022-09-15T05:44:53.738Z,10.30
2022-09-15T05:47:21.908Z,10.30
2022-09-15T05:49:50.051Z,10.30
2022-09-15T05:52:17.983Z,10.40
2022-09-15T05:54:46.155Z,10.40
2022-09-15T05:57:14.082Z,10.40
2022-09-15T05:59:44.091Z,10.40
2022-09-15T06:02:13.447Z,10.40
2022-09-15T06:04:42.427Z,10.40
2022-09-15T06:07:10.463Z,10.40
2022-09-15T06:09:39.511Z,10.40
2022-09-15T06:12:07.913Z,10.40
2022-09-15T06:14:35.823Z,10.40
2022-09-15T06:17:03.812Z,10.50
2022-09-15T06:19:34.267Z,10.40
2022-09-15T06:22:02.178Z,10.50
2022-09-15T06:24:30.101Z,10.50
2022-09-15T06:26:58.295Z,10.60
2022-09-15T06:29:26.235Z,10.60
2022-09-15T06:32:02.980Z,10.60
2022-09-15T06:34:36.574Z,10.70
2022-09-15T06:37:05.939Z,10.70
2022-09-15T06:39:36.626Z,10.70
2022-09-15T06:42:05.836Z,10.70
2022-09-15T06:44:33.994Z,10.60
2022-09-15T06:47:01.955Z,10.70
2022-09-15T06:49:33.616Z,10.60
2022-09-15T06:52:03.070Z,10.70
2022-09-15T06:54:32.617Z,10.70
2022-09-15T06:57:00.794Z,10.70
2022-09-15T06:59:28.766Z,10.70
2022-09-15T07:02:04.648Z,10.60
2022-09-15T07:04:34.767Z,10.80
2022-09-15T07:07:02.766Z,10.80
2022-09-15T07:09:32.159Z,10.70
2022-09-15T07:12:00.310Z,10.70
2022-09-15T07:14:28.241Z,10.80
2022-09-15T07:16:56.163Z,10.80
2022-09-15T07:19:31.346Z,10.90
2022-09-15T07:21:59.311Z,10.90
2022-09-15T07:24:30.267Z,11.00
2022-09-15T07:26:59.830Z,11.10
2022-09-15T07:29:27.997Z,11.20
2022-09-15T07:31:56.148Z,11.30
2022-09-15T07:34:24.137Z,11.40
2022-09-15T07:36:52.435Z,11.40
2022-09-15T07:39:20.398Z,11.40
2022-09-15T07:41:48.316Z,11.30
2022-09-15T07:44:17.827Z,11.40
2022-09-15T07:46:46.413Z,11.70
2022-09-15T07:49:14.614Z,11.70
2022-09-15T07:51:43.075Z,11.70
2022-09-15T07:54:11.531Z,11.80
2022-09-15T07:56:39.466Z,11.80
2022-09-15T07:59:08.209Z,11.70
2022-09-15T08:01:37.565Z,11.80
2022-09-15T08:04:05.526Z,11.80
2022-09-15T08:06:33.799Z,11.80
2022-09-15T08:09:03.123Z,12.30
2022-09-15T08:11:31.700Z,12.20
2022-09-15T08:14:04.322Z,12.10
2022-09-15T08:16:34.875Z,12.10
2022-09-15T08:19:04.293Z,12.30
2022-09-15T08:21:32.445Z,12.30
2022-09-15T08:24:02.493Z,12.40
2022-09-15T08:26:31.171Z,12.50
2022-09-15T08:29:01.531Z,12.30
2022-09-15T08:31:29.618Z,12.50
2022-09-15T08:33:57.871Z,12.60
2022-09-15T08:36:28.354Z,12.70
2022-09-15T08:38:56.720Z,12.60
2022-09-15T08:41:26.110Z,12.60
2022-09-15T08:43:57.341Z,12.70
2022-09-15T08:46:28.768Z,12.80
2022-09-15T08:49:02.947Z,12.90
2022-09-15T08:51:38.597Z,13.00
2022-09-15T08:54:09.528Z,12.80
2022-09-15T08:56:37.846Z,12.70
2022-09-15T08:59:06.128Z,12.60
2022-09-15T09:01:38.934Z,12.80
2022-09-15T09:04:24.865Z,13.00
2022-09-15T09:07:02.651Z,13.10
2022-09-15T09:09:40.418Z,13.20
2022-09-15T09:12:21.985Z,13.20
2022-09-15T09:14:57.448Z,13.10
2022-09-15T09:17:34.875Z,13.10
2022-09-15T09:20:17.473Z,13.00
2022-09-15T09:22:48.434Z,13.00
2022-09-15T09:25:27.323Z,13.00
2022-09-15T09:27:56.533Z,13.00
2022-09-15T09:30:25.424Z,13.20
2022-09-15T09:32:57.512Z,13.20
2022-09-15T09:35:30.010Z,13.20
2022-09-15T09:38:02.548Z,13.30
2022-09-15T09:40:31.737Z,13.30
2022-09-15T09:43:00.833Z,13.20
2022-09-15T09:45:31.546Z,13.30
2022-09-15T09:48:02.056Z,13.40
2022-09-15T09:50:34.921Z,13.40
2022-09-15T09:53:18.342Z,13.50
2022-09-15T09:55:47.562Z,13.50
2022-09-15T09:58:21.846Z,13.60
2022-09-15T10:00:50.476Z,13.70
2022-09-15T10:03:19.329Z,13.70
2022-09-15T10:06:00.595Z,13.80
2022-09-15T10:08:30.272Z,13.90
2022-09-15T10:11:00.443Z,14.00
2022-09-15T10:13:28.478Z,14.00
2022-09-15T10:15:57.933Z,14.10
2022-09-15T10:18:31.051Z,14.30
2022-09-15T10:21:00.432Z,14.30
2022-09-15T10:23:29.490Z,14.30
2022-09-15T10:26:00.486Z,14.40
2022-09-15T10:28:29.002Z,14.40
2022-09-15T10:30:59.616Z,14.10
2022-09-15T10:33:28.794Z,14.30
2022-09-15T10:36:00.614Z,14.60
2022-09-15T10:38:34.218Z,14.60
2022-09-15T10:41:08.618Z,14.80
2022-09-15T10:43:42.158Z,14.70
2022-09-15T10:46:13.896Z,14.60
2022-09-15T10:48:49.337Z,14.40
2022-09-15T10:51:34.251Z,14.70
2022-09-15T10:54:13.234Z,14.70
2022-09-15T10:56:44.447Z,14.70
2022-09-15T10:59:30.541Z,14.70
2022-09-15T11:02:04.429Z,14.50
2022-09-15T11:04:42.797Z,14.80
2022-09-15T11:07:14.067Z,14.90
2022-09-15T11:09:43.959Z,14.80
2022-09-15T11:12:29.007Z,14.80
2022-09-15T11:15:05.782Z,14.90
2022-09-15T11:17:43.968Z,15.00
2022-09-15T11:20:26.740Z,15.30
2022-09-15T11:22:58.244Z,15.40
2022-09-15T11:25:28.247Z,15.50
2022-09-15T11:27:58.941Z,15.80
2022-09-15T11:30:33.459Z,15.70
2022-09-15T11:33:03.928Z,15.70
2022-09-15T11:35:35.742Z,15.70
2022-09-15T11:38:13.033Z,15.60
2022-09-15T11:40:45.420Z,15.60
2022-09-15T11:43:18.670Z,15.90
2022-09-15T11:45:48.999Z,16.10
2022-09-15T11:48:19.159Z,16.00
2022-09-15T11:50:49.258Z,16.00
2022-09-15T11:53:21.547Z,15.80
2022-09-15T11:55:52.973Z,15.90
2022-09-15T11:58:24.786Z,15.70
2022-09-15T12:00:54.542Z,15.90
2022-09-15T12:03:25.152Z,15.60
2022-09-15T12:05:55.777Z,15.60
2022-09-15T12:08:28.815Z,15.50
2022-09-15T12:10:58.335Z,15.80
2022-09-15T12:13:31.058Z,15.90
2022-09-15T12:16:01.157Z,16.00
2022-09-15T12:18:41.051Z,16.00
2022-09-15T12:21:13.858Z,16.10
2022-09-15T12:23:45.383Z,16.10
2022-09-15T12:26:19.058Z,16.40
2022-09-15T12:28:56.308Z,16.30
2022-09-15T12:31:39.848Z,16.10
2022-09-15T12:34:23.229Z,15.80
2022-09-15T12:36:52.730Z,15.70
2022-09-15T12:39:23.218Z,15.80
2022-09-15T12:41:52.253Z,16.10
2022-09-15T12:44:24.745Z,16.20
2022-09-15T12:46:53.628Z,16.20
2022-09-15T12:49:24.563Z,16.60
2022-09-15T12:51:52.602Z,16.30
2022-09-15T12:54:23.631Z,16.90
2022-09-15T12:56:53.577Z,17.00
2022-09-15T12:59:27.720Z,16.80
2022-09-15T13:01:57.727Z,16.90
2022-09-15T13:04:43.815Z,16.80
2022-09-15T13:07:33.359Z,16.90
2022-09-15T13:10:16.359Z,17.30
2022-09-15T13:12:49.186Z,17.20
2022-09-15T13:15:18.522Z,17.70
2022-09-15T13:17:48.433Z,18.00
2022-09-15T13:20:21.913Z,17.50
2022-09-15T13:22:52.176Z,17.60
2022-09-15T13:25:23.824Z,17.40
2022-09-15T13:27:53.582Z,17.40
2022-09-15T13:30:33.621Z,16.90
2022-09-15T13:33:07.899Z,17.00
2022-09-15T13:35:53.853Z,16.20
2022-09-15T13:38:39.206Z,16.20
2022-09-15T13:41:34.168Z,16.10
2022-09-15T13:44:22.755Z,15.70
2022-09-15T13:46:57.670Z,15.90
2022-09-15T13:49:35.836Z,15.20
2022-09-15T13:52:08.310Z,15.70
2022-09-15T13:54:36.242Z,15.00
2022-09-15T13:57:04.746Z,15.20
2022-09-15T13:59:34.899Z,15.00
2022-09-15T14:02:09.020Z,14.50
2022-09-15T14:04:38.534Z,14.50
2022-09-15T14:07:06.764Z,14.90
2022-09-15T14:09:39.932Z,15.30
2022-09-15T14:12:10.284Z,15.40
2022-09-15T14:14:39.314Z,15.30
2022-09-15T14:17:07.820Z,15.30
2022-09-15T14:19:36.990Z,15.30
2022-09-15T14:22:24.916Z,15.30
2022-09-15T14:24:53.150Z,15.10
2022-09-15T14:27:22.298Z,15.20
2022-09-15T14:29:55.295Z,14.80
2022-09-15T14:32:25.265Z,14.40
2022-09-15T14:34:53.808Z,14.20
2022-09-15T14:37:24.072Z,14.40
2022-09-15T14:39:56.161Z,14.80
2022-09-15T14:42:29.658Z,14.90
2022-09-15T14:47:47.105Z,15.10
2022-09-15T14:50:16.175Z,15.00
2022-09-15T14:52:48.358Z,14.80
2022-09-15T14:55:19.470Z,14.40
2022-09-15T14:57:52.607Z,14.40
2022-09-15T15:00:22.518Z,14.30
2022-09-15T15:02:54.585Z,14.40
2022-09-15T15:05:25.906Z,14.60
2022-09-15T15:07:56.131Z,14.80
2022-09-15T15:10:25.491Z,14.90
2022-09-15T15:13:02.343Z,14.70
2022-09-15T15:15:32.372Z,14.60
2022-09-15T15:18:00.728Z,14.50
2022-09-15T15:20:30.380Z,14.40
2022-09-15T15:23:11.767Z,14.30
2022-09-15T15:25:40.049Z,14.40
2022-09-15T15:28:08.486Z,14.30
2022-09-15T15:30:46.922Z,14.20
2022-09-15T15:33:24.378Z,14.10
2022-09-15T15:36:02.614Z,14.00
2022-09-15T15:38:34.510Z,14.10
2022-09-15T15:41:03.723Z,14.00
2022-09-15T15:43:31.890Z,14.00
2022-09-15T15:46:01.372Z,14.00
2022-09-15T15:48:34.046Z,14.00
2022-09-15T15:51:06.091Z,14.00
2022-09-15T15:53:35.821Z,14.10
2022-09-15T15:56:04.026Z,14.10
2022-09-15T15:58:32.169Z,14.00
2022-09-15T16:01:00.425Z,14.00
2022-09-15T16:03:29.861Z,13.90
2022-09-15T16:05:58.818Z,13.90
2022-09-15T16:08:29.476Z,13.90
2022-09-15T16:10:59.457Z,13.80
2022-09-15T16:13:27.627Z,13.80
2022-09-15T16:15:56.886Z,13.70
2022-09-15T16:18:25.018Z,13.70
2022-09-15T16:20:53.365Z,13.60
2022-09-15T16:23:22.814Z,13.50
2022-09-15T16:25:54.755Z,13.50
2022-09-15T16:28:24.217Z,13.60
2022-09-15T16:30:52.414Z,13.40
2022-09-15T16:33:20.373Z,13.40
2022-09-15T16:35:51.440Z,13.40
2022-09-15T16:38:20.398Z,13.40
2022-09-15T16:40:48.411Z,13.40
2022-09-15T16:43:17.275Z,13.30
2022-09-15T16:45:47.046Z,13.30
2022-09-15T16:48:15.033Z,13.30
2022-09-15T16:51:02.194Z,13.30
2022-09-15T16:53:32.876Z,13.30
2022-09-15T16:56:00.882Z,13.10
2022-09-15T16:58:28.952Z,13.10
2022-09-15T17:00:58.529Z,13.10
2022-09-15T17:03:27.350Z,13.00
2022-09-15T17:05:56.270Z,13.10
2022-09-15T17:08:25.798Z,13.00
2022-09-15T17:10:54.278Z,12.90
2022-09-15T17:13:26.401Z,12.90
2022-09-15T17:15:59.189Z,12.80
2022-09-15T17:18:27.508Z,12.70
2022-09-15T17:20:59.044Z,12.60
2022-09-15T17:23:27.817Z,12.50
2022-09-15T17:25:58.477Z,12.50
2022-09-15T17:28:27.730Z,12.50
2022-09-15T17:30:59.449Z,12.50
2022-09-15T17:33:28.040Z,12.40
2022-09-15T17:35:56.203Z,12.40
2022-09-15T17:38:25.358Z,12.40
2022-09-15T17:40:55.414Z,12.40
2022-09-15T17:43:24.766Z,12.40
2022-09-15T17:45:53.159Z,12.40
2022-09-15T17:48:24.012Z,12.40
2022-09-15T17:50:52.591Z,12.30
2022-09-15T17:53:23.018Z,12.20
2022-09-15T17:55:57.387Z,12.10
2022-09-15T17:58:26.682Z,12.00
2022-09-15T18:00:55.566Z,12.10
2022-09-15T18:03:29.202Z,12.10
2022-09-15T18:06:01.286Z,12.00
2022-09-15T18:08:29.747Z,12.00
2022-09-15T18:10:58.527Z,12.00
2022-09-15T18:13:28.392Z,12.00
2022-09-15T18:15:57.307Z,12.00
2022-09-15T18:18:29.352Z,11.90
2022-09-15T18:20:58.462Z,11.80
2022-09-15T18:23:29.189Z,11.80
2022-09-15T18:25:58.133Z,11.80
2022-09-15T18:28:26.798Z,11.80
2022-09-15T18:30:56.031Z,11.70
2022-09-15T18:33:26.699Z,11.70
2022-09-15T18:35:59.727Z,11.70
2022-09-15T18:38:29.511Z,11.70
2022-09-15T18:40:59.149Z,11.60
2022-09-15T18:43:29.512Z,11.60
2022-09-15T18:46:01.385Z,11.60
2022-09-15T18:48:30.576Z,11.50
2022-09-15T18:51:05.567Z,11.50
2022-09-15T18:53:37.608Z,11.30
2022-09-15T18:56:12.412Z,11.30
2022-09-15T18:58:43.277Z,11.30
2022-09-15T19:01:12.754Z,11.20
2022-09-15T19:03:45.133Z,11.20
2022-09-15T19:06:16.324Z,11.20
2022-09-15T19:08:46.456Z,11.20
2022-09-15T19:11:18.162Z,11.20
2022-09-15T19:13:49.091Z,11.30
2022-09-15T19:16:22.750Z,11.20
2022-09-15T19:18:58.155Z,11.20
2022-09-15T19:21:30.392Z,11.10
2022-09-15T19:24:00.725Z,11.10
2022-09-15T19:26:31.826Z,11.20
2022-09-15T19:29:04.437Z,11.20
2022-09-15T19:31:38.500Z,11.10
2022-09-15T19:34:11.688Z,10.90
2022-09-15T19:36:44.307Z,10.80
2022-09-15T19:39:14.857Z,10.70
2022-09-15T19:41:43.870Z,10.80
2022-09-15T19:44:16.405Z,10.80
2022-09-15T19:46:45.386Z,10.80
2022-09-15T19:49:14.000Z,10.70
2022-09-15T19:51:44.025Z,10.70
2022-09-15T19:54:12.736Z,10.70
2022-09-15T19:56:41.146Z,10.70
2022-09-15T19:59:09.389Z,10.80
2022-09-15T20:01:39.071Z,10.70
2022-09-15T20:04:07.076Z,10.60
2022-09-15T20:06:37.466Z,10.60
2022-09-15T20:09:07.413Z,10.50
2022-09-15T20:11:35.814Z,10.50
2022-09-15T20:14:04.302Z,10.50
2022-09-15T20:16:32.381Z,10.50
2022-09-15T20:19:00.332Z,10.50
2022-09-15T20:21:48.563Z,10.50
2022-09-15T20:24:19.905Z,10.50
2022-09-15T20:26:50.252Z,10.50
2022-09-15T20:29:18.611Z,10.50
2022-09-15T20:31:46.679Z,10.50
2022-09-15T20:34:14.639Z,10.50
2022-09-15T20:36:43.775Z,10.50
2022-09-15T20:39:13.477Z,10.50
2022-09-15T20:41:45.092Z,10.50
2022-09-15T20:44:13.354Z,10.50
2022-09-15T20:46:41.637Z,10.30
2022-09-15T20:49:09.577Z,10.40
2022-09-15T20:51:37.579Z,10.30
2022-09-15T20:54:06.222Z,10.30
2022-09-15T20:56:35.417Z,10.30
2022-09-15T20:59:06.265Z,10.30
2022-09-15T21:01:35.008Z,10.30
2022-09-15T21:04:03.509Z,10.30
2022-09-15T21:06:32.046Z,10.30
2022-09-15T21:09:00.383Z,10.30
2022-09-15T21:11:29.734Z,10.20
2022-09-15T21:13:58.810Z,10.10
2022-09-15T21:16:29.328Z,10.10
2022-09-15T21:18:58.109Z,10.10
2022-09-15T21:21:27.390Z,10.10
2022-09-15T21:23:56.542Z,10.20
2022-09-15T21:26:26.163Z,10.30
2022-09-15T21:28:57.353Z,10.30
2022-09-15T21:31:26.354Z,10.20
2022-09-15T21:33:56.092Z,10.10
2022-09-15T21:36:25.038Z,10.20
2022-09-15T21:38:53.725Z,10.30
2022-09-15T21:41:25.751Z,10.20
2022-09-15T21:43:55.471Z,10.20
2022-09-15T21:46:24.454Z,10.00
2022-09-15T21:48:52.874Z,10.10
2022-09-15T21:51:25.006Z,10.60
2022-09-15T21:53:54.045Z,10.10
2022-09-15T21:56:22.669Z,10.10
2022-09-15T21:58:50.944Z,10.10
2022-09-15T22:01:19.984Z,10.00
2022-09-15T22:03:49.446Z,10.10
2022-09-15T22:06:18.501Z,10.20
2022-09-15T22:08:48.120Z,10.30
2022-09-15T22:11:16.046Z,10.30
2022-09-15T22:13:45.328Z,10.40
2022-09-15T22:16:14.279Z,10.40
2022-09-15T22:18:43.119Z,10.40
2022-09-15T22:21:12.816Z,10.40
2022-09-15T22:23:40.999Z,10.50
2022-09-15T22:26:11.120Z,10.50
2022-09-15T22:28:41.294Z,10.50
2022-09-15T22:31:10.829Z,10.40
2022-09-15T22:33:41.083Z,10.50
2022-09-15T22:36:10.011Z,10.40
2022-09-15T22:38:37.996Z,10.50
2022-09-15T22:41:06.747Z,10.50
2022-09-15T22:43:36.456Z,10.50
2022-09-15T22:46:04.537Z,10.40
2022-09-15T22:48:32.568Z,10.40
2022-09-15T22:51:00.534Z,10.40
2022-09-15T22:53:28.603Z,10.30
2022-09-15T22:56:05.012Z,10.30
2022-09-15T22:58:33.260Z,10.40
2022-09-15T23:01:06.228Z,10.40
2022-09-15T23:03:34.747Z,10.40
2022-09-15T23:06:03.250Z,10.20
2022-09-15T23:08:31.634Z,10.30
2022-09-15T23:11:03.222Z,10.30
2022-09-15T23:13:31.379Z,10.30
2022-09-15T23:15:59.377Z,10.30
2022-09-15T23:18:29.219Z,10.30
2022-09-15T23:20:58.025Z,10.30
2022-09-15T23:23:26.308Z,10.20
2022-09-15T23:25:54.289Z,10.30
2022-09-15T23:28:22.415Z,10.20
2022-09-15T23:30:52.714Z,10.10
2022-09-15T23:33:20.839Z,10.00
2022-09-15T23:35:50.358Z,10.00
2022-09-15T23:38:18.643Z,10.00
2022-09-15T23:40:47.320Z,9.90
2022-09-15T23:43:15.816Z,9.90
2022-09-15T23:45:44.398Z,9.90
2022-09-15T23:48:13.142Z,9.90
2022-09-15T23:50:41.832Z,9.90
2022-09-15T23:53:11.348Z,9.90
2022-09-15T23:55:39.314Z,9.90
2022-09-15T23:58:07.554Z,9.90
